In Rescue
 
Open Full Screen Window  High Contrast Mode
Wind Gusting 00 knots
06
March 04, 2021 3:27 AM EST
Weather Information
Wind Direction
  340 °
Wind Speed
  06 kt (7 mph)
Wind Gust
  00 kt (0 mph)
Altimeter
30.07 in
Visibility
10 SM
Temperature
01° C
34° F
Dewpoint
00° C
32° F
Humidity
93%
1hr Rain Fall
00.00 in.
24hr Rain Fall
00.00 in.
Sky Condition
Overcast @ 2,500 ft
Broken @ 1,700 ft
MVFR

METAR KONZ 040827Z AUTO 34006KT 10SM BKN017 OVC025 01/00 A3007 RMK AO2 T00131002

FAA Disclaimer: The data displayed is for advisory purposes only and is not to be used for flight planning or operations.